Time;durP1;ratioP1;P1;durP2;ratioP2;P2;SDS_P1;SDS_P2;PMS_P1;PMS_P2;Temp;Humidity;BMP_temperature;BMP_pressure;BME280_temperature;BME280_humidity;BME280_pressure;Samples;Min_cycle;Max_cycle;Signal;HPM_P1;HPM_P2
2024/03/16 05:31:39;;;;;;;0.10;0.10;;;11.40;83.00;;;;;;5419984;23;20053;-78
2024/03/16 05:34:05;;;;;;;0.10;0.10;;;11.40;83.00;;;;;;5012350;28;20022;-78
2024/03/16 05:36:31;;;;;;;0.10;0.10;;;11.30;83.30;;;;;;5009810;28;20053;-78
2024/03/16 05:38:56;;;;;;;0.10;0.10;;;11.40;83.70;;;;;;5018441;28;20018;-79
2024/03/16 05:41:22;;;;;;;0.10;0.10;;;11.40;83.70;;;;;;5011115;28;20030;-78
2024/03/16 05:43:47;;;;;;;0.10;0.10;;;11.50;83.50;;;;;;5029982;28;20053;-78
2024/03/16 05:46:13;;;;;;;0.10;0.10;;;11.50;83.40;;;;;;4997709;28;20035;-78
2024/03/16 05:48:39;;;;;;;0.10;0.10;;;11.50;83.00;;;;;;5032782;28;20029;-78
2024/03/16 05:51:05;;;;;;;0.10;0.10;;;11.40;83.70;;;;;;5018043;28;20030;-78
2024/03/16 05:53:31;;;;;;;0.10;0.10;;;11.40;83.50;;;;;;5013287;28;20049;-78
2024/03/16 05:55:56;;;;;;;0.10;0.10;;;11.40;83.60;;;;;;4998587;28;20474;-78
2024/03/16 05:58:22;;;;;;;0.10;0.10;;;11.50;83.60;;;;;;5013186;28;20489;-78
2024/03/16 06:00:48;;;;;;;0.10;0.10;;;11.50;83.40;;;;;;5000538;28;20021;-79
2024/03/16 06:03:14;;;;;;;0.10;0.10;;;11.60;83.50;;;;;;5012732;28;20036;-78
2024/03/16 06:05:45;;;;;;;0.00;0.00;;;11.60;83.30;;;;;;5004993;28;20030;-78
2024/03/16 06:08:11;;;;;;;0.10;0.10;;;11.70;83.10;;;;;;5016640;28;20026;-78
2024/03/16 06:10:37;;;;;;;0.10;0.10;;;11.70;83.30;;;;;;5017874;28;20030;-79
2024/03/16 06:13:04;;;;;;;0.10;0.10;;;11.70;83.20;;;;;;4998963;28;20038;-79
2024/03/16 06:15:30;;;;;;;0.10;0.10;;;11.70;83.10;;;;;;4998330;28;20482;-78
2024/03/16 06:17:55;;;;;;;0.10;0.10;;;11.70;83.20;;;;;;5029505;28;20097;-78
2024/03/16 06:20:21;;;;;;;0.10;0.10;;;11.60;83.70;;;;;;4997934;28;20026;-78
2024/03/16 06:22:48;;;;;;;0.10;0.10;;;11.60;83.80;;;;;;5033972;28;20092;-78
2024/03/16 06:25:14;;;;;;;0.10;0.10;;;11.70;83.70;;;;;;5035020;28;20028;-78
2024/03/16 06:27:43;;;;;;;0.10;0.10;;;11.70;83.60;;;;;;4997944;28;20026;-77
2024/03/16 06:30:13;;;;;;;0.10;0.10;;;11.80;83.60;;;;;;4996409;28;20496;-78
2024/03/16 06:32:44;;;;;;;0.10;0.10;;;11.80;83.40;;;;;;5012947;28;20045;-77
2024/03/16 06:35:13;;;;;;;0.10;0.10;;;11.80;83.50;;;;;;5000363;28;20659;-77
2024/03/16 06:37:38;;;;;;;0.10;0.10;;;11.80;83.50;;;;;;5016999;28;20556;-77
2024/03/16 06:40:05;;;;;;;0.10;0.10;;;11.80;83.50;;;;;;5015884;28;20018;-77
2024/03/16 06:42:31;;;;;;;0.10;0.10;;;11.80;83.40;;;;;;4999270;28;20041;-77
2024/03/16 06:44:56;;;;;;;0.10;0.10;;;11.90;83.40;;;;;;5003480;28;20021;-77
2024/03/16 06:47:22;;;;;;;0.10;0.10;;;11.90;83.40;;;;;;5015990;28;20516;-77
2024/03/16 06:49:49;;;;;;;0.10;0.10;;;11.90;83.60;;;;;;5002659;28;20037;-77
2024/03/16 06:52:24;;;;;;;0.10;0.10;;;11.90;83.70;;;;;;4997111;28;20041;-77
2024/03/16 06:54:52;;;;;;;0.10;0.10;;;11.90;83.90;;;;;;4997483;28;20088;-77
2024/03/16 06:57:18;;;;;;;0.10;0.10;;;11.90;84.00;;;;;;4997083;28;20022;-76
2024/03/16 06:59:44;;;;;;;0.10;0.10;;;12.00;83.90;;;;;;5012403;28;20122;-78
2024/03/16 07:02:10;;;;;;;0.10;0.10;;;12.10;83.90;;;;;;5012260;28;20053;-75
2024/03/16 07:04:35;;;;;;;0.10;0.10;;;12.20;83.70;;;;;;5016628;28;20037;-75
2024/03/16 07:07:01;;;;;;;0.10;0.10;;;12.30;83.70;;;;;;5014931;28;20028;-76
2024/03/16 07:09:27;;;;;;;0.17;0.17;;;12.30;83.60;;;;;;5016141;28;20025;-75
2024/03/16 07:11:53;;;;;;;0.10;0.10;;;12.40;83.50;;;;;;4997064;28;20102;-75
2024/03/16 07:14:19;;;;;;;0.10;0.10;;;12.40;83.30;;;;;;4997013;28;20026;-76
2024/03/16 07:16:45;;;;;;;0.10;0.10;;;12.50;83.40;;;;;;5029934;28;20026;-76
2024/03/16 07:19:10;;;;;;;0.10;0.10;;;12.60;83.30;;;;;;5015343;28;20033;-75
2024/03/16 07:21:36;;;;;;;0.10;0.10;;;12.70;83.20;;;;;;5016731;28;20048;-75
2024/03/16 07:24:03;;;;;;;0.10;0.10;;;12.70;83.50;;;;;;5002812;28;20030;-82
2024/03/16 07:26:29;;;;;;;0.10;0.10;;;12.70;83.40;;;;;;4997238;28;20070;-77
2024/03/16 07:28:58;;;;;;;0.10;0.10;;;12.70;83.60;;;;;;5016113;28;20041;-76
2024/03/16 07:31:23;;;;;;;0.10;0.10;;;12.60;83.70;;;;;;4996961;28;20042;-76
2024/03/16 07:33:49;;;;;;;0.10;0.10;;;12.60;83.90;;;;;;4996605;28;20115;-77
2024/03/16 07:36:15;;;;;;;0.10;0.10;;;12.60;84.00;;;;;;5008383;28;20540;-78
2024/03/16 07:38:40;;;;;;;0.10;0.10;;;12.50;84.00;;;;;;5015671;28;20030;-78
2024/03/16 07:41:08;;;;;;;0.13;0.13;;;12.50;84.10;;;;;;5014231;28;20084;-76
2024/03/16 07:43:33;;;;;;;0.10;0.10;;;12.50;84.30;;;;;;5012200;28;20053;-78
2024/03/16 07:45:59;;;;;;;0.20;0.20;;;12.70;83.90;;;;;;4996680;28;20065;-76
2024/03/16 07:48:26;;;;;;;0.10;0.10;;;12.70;83.80;;;;;;5010113;28;20034;-82
2024/03/16 07:51:04;;;;;;;0.10;0.10;;;12.80;83.70;;;;;;5015737;28;20034;-81
2024/03/16 07:53:33;;;;;;;0.10;0.10;;;12.90;83.60;;;;;;5008865;28;20117;-81
2024/03/16 07:55:59;;;;;;;0.20;0.20;;;13.00;83.40;;;;;;4996589;28;20027;-82
2024/03/16 07:58:25;;;;;;;0.20;0.20;;;13.10;83.30;;;;;;4995015;28;20082;-82
2024/03/16 08:00:51;;;;;;;0.20;0.20;;;13.80;82.30;;;;;;4995438;28;20029;-81
2024/03/16 08:03:17;;;;;;;0.20;0.20;;;14.40;81.10;;;;;;5009387;28;20026;-81
2024/03/16 08:05:43;;;;;;;0.15;0.15;;;15.00;79.40;;;;;;5002497;28;20429;-81
2024/03/16 08:08:08;;;;;;;0.10;0.10;;;15.50;77.70;;;;;;5009986;28;20042;-80
2024/03/16 08:10:34;;;;;;;0.15;0.15;;;15.30;77.20;;;;;;4996185;28;20081;-82
2024/03/16 08:13:00;;;;;;;0.30;0.30;;;15.20;77.50;;;;;;4996281;28;20030;-78
2024/03/16 08:15:26;;;;;;;0.25;0.25;;;15.70;77.20;;;;;;5000362;28;20034;-83
2024/03/16 08:17:54;;;;;;;0.28;0.28;;;15.90;76.00;;;;;;5017646;28;20030;-86
2024/03/16 08:20:20;;;;;;;0.20;0.20;;;16.20;75.10;;;;;;5018763;28;20371;-85
2024/03/16 08:22:48;;;;;;;0.20;0.20;;;16.40;74.70;;;;;;5008251;28;20026;-79
2024/03/16 08:25:14;;;;;;;0.20;0.20;;;16.50;74.20;;;;;;4999743;28;20367;-81
2024/03/16 08:27:40;;;;;;;0.30;0.30;;;16.60;73.60;;;;;;5000078;28;20023;-82
2024/03/16 08:30:06;;;;;;;0.30;0.30;;;16.70;73.00;;;;;;5000157;28;20026;-82
2024/03/16 08:32:32;;;;;;;0.20;0.20;;;17.00;72.50;;;;;;5014052;28;20042;-82
2024/03/16 08:34:58;;;;;;;0.20;0.20;;;16.90;72.60;;;;;;5032691;28;20113;-81
2024/03/16 08:37:24;;;;;;;0.30;0.30;;;16.90;71.80;;;;;;5014767;28;20046;-83
2024/03/16 08:39:50;;;;;;;0.30;0.30;;;16.90;72.50;;;;;;5016806;28;20057;-83
2024/03/16 08:42:15;;;;;;;0.20;0.20;;;16.90;72.10;;;;;;5018388;28;20548;-82
2024/03/16 08:44:41;;;;;;;0.20;0.20;;;17.10;72.10;;;;;;5048970;28;20018;-83
2024/03/16 08:47:07;;;;;;;0.20;0.20;;;17.10;71.80;;;;;;5017987;28;20030;-83
2024/03/16 08:49:34;;;;;;;0.10;0.10;;;16.90;73.00;;;;;;5013636;28;20026;-80
2024/03/16 08:52:00;;;;;;;0.10;0.10;;;16.80;73.00;;;;;;5009832;28;20126;-83
2024/03/16 08:54:26;;;;;;;0.10;0.10;;;16.80;72.90;;;;;;5020080;28;20022;-82
2024/03/16 08:56:52;;;;;;;0.10;0.10;;;16.40;73.70;;;;;;5016314;28;20128;-81
2024/03/16 08:59:18;;;;;;;0.10;0.10;;;16.30;75.10;;;;;;5020872;28;20014;-80
2024/03/16 09:01:43;;;;;;;0.10;0.10;;;16.10;75.60;;;;;;5017630;28;20026;-81
2024/03/16 09:04:09;;;;;;;0.10;0.10;;;15.80;76.70;;;;;;5017098;28;20053;-81
2024/03/16 09:06:38;;;;;;;0.10;0.10;;;15.70;77.30;;;;;;5017198;28;20071;-80
2024/03/16 09:09:07;;;;;;;0.10;0.10;;;15.70;77.50;;;;;;5016990;28;20053;-80
2024/03/16 09:11:32;;;;;;;0.20;0.20;;;15.60;78.30;;;;;;5019586;28;20033;-79
2024/03/16 09:13:58;;;;;;;0.30;0.30;;;15.80;78.30;;;;;;5028336;28;20042;-79
2024/03/16 09:16:24;;;;;;;0.20;0.20;;;16.30;77.20;;;;;;5021963;28;20049;-81
2024/03/16 09:18:49;;;;;;;0.10;0.10;;;16.60;76.10;;;;;;5017565;28;20097;-83
2024/03/16 09:21:15;;;;;;;0.20;0.20;;;16.60;75.80;;;;;;5022997;28;20025;-83
2024/03/16 09:23:41;;;;;;;0.20;0.20;;;16.60;75.60;;;;;;5023999;28;20080;-83
2024/03/16 09:26:07;;;;;;;0.10;0.10;;;16.60;75.80;;;;;;5019971;28;20069;-83
2024/03/16 09:28:34;;;;;;;0.10;0.10;;;16.80;76.10;;;;;;5012557;28;20018;-83
2024/03/16 09:31:04;;;;;;;0.20;0.20;;;16.90;76.10;;;;;;5017361;28;20048;-83
2024/03/16 09:33:29;;;;;;;0.10;0.10;;;16.90;76.00;;;;;;5022040;28;20022;-83
2024/03/16 09:35:55;;;;;;;0.10;0.10;;;17.00;75.80;;;;;;5023344;28;20096;-83
2024/03/16 09:38:22;;;;;;;0.10;0.10;;;16.90;75.70;;;;;;5017926;28;20037;-83
2024/03/16 09:40:52;;;;;;;0.10;0.10;;;16.80;76.00;;;;;;5026238;28;20030;-83
2024/03/16 09:43:18;;;;;;;0.10;0.10;;;16.80;76.40;;;;;;5019862;28;20028;-83
2024/03/16 09:45:46;;;;;;;0.10;0.10;;;16.80;76.50;;;;;;5017613;28;20037;-83
2024/03/16 09:48:12;;;;;;;0.10;0.10;;;16.80;76.80;;;;;;5017667;28;20018;-83
2024/03/16 09:50:47;;;;;;;0.10;0.10;;;16.80;76.70;;;;;;5018495;28;20041;-83
2024/03/16 09:53:33;;;;;;;0.10;0.10;;;16.70;76.30;;;;;;5017354;28;20029;-83
2024/03/16 09:56:04;;;;;;;0.10;0.10;;;16.70;77.10;;;;;;5014713;28;20036;-85
2024/03/16 09:58:30;;;;;;;0.10;0.10;;;16.60;76.40;;;;;;5017189;28;20089;-78
2024/03/16 10:01:03;;;;;;;0.10;0.10;;;16.30;76.50;;;;;;5017664;28;20026;-87
2024/03/16 10:03:30;;;;;;;0.10;0.10;;;16.30;77.50;;;;;;5015485;28;20076;-85
2024/03/16 10:06:04;;;;;;;0.10;0.10;;;16.20;78.20;;;;;;5015515;28;20049;-85
2024/03/16 10:08:32;;;;;;;0.10;0.10;;;16.20;78.40;;;;;;5013547;28;20034;-83
2024/03/16 10:11:12;;;;;;;0.10;0.10;;;16.20;78.10;;;;;;5015401;28;20030;-77
2024/03/16 10:13:38;;;;;;;0.10;0.10;;;16.20;78.30;;;;;;5016682;28;20022;-81
2024/03/16 10:16:07;;;;;;;0.10;0.10;;;16.30;78.10;;;;;;5016785;28;20022;-77
2024/03/16 10:18:34;;;;;;;0.10;0.10;;;16.30;77.90;;;;;;5014791;28;20041;-77
2024/03/16 10:21:00;;;;;;;0.10;0.10;;;16.20;77.10;;;;;;5015191;28;20418;-77
2024/03/16 10:23:26;;;;;;;0.10;0.10;;;16.30;77.60;;;;;;5015278;28;20133;-77
2024/03/16 10:25:56;;;;;;;0.10;0.10;;;16.40;77.40;;;;;;5015311;28;20030;-80
2024/03/16 10:28:22;;;;;;;0.10;0.10;;;16.30;76.90;;;;;;5014859;28;20024;-76
2024/03/16 10:30:49;;;;;;;0.10;0.10;;;16.30;76.80;;;;;;5015741;28;20050;-77
2024/03/16 10:33:24;;;;;;;0.10;0.10;;;16.30;77.70;;;;;;5017141;28;20022;-77
2024/03/16 10:35:52;;;;;;;0.10;0.10;;;16.30;77.80;;;;;;5022327;28;20022;-77
2024/03/16 10:38:19;;;;;;;0.10;0.10;;;16.50;77.60;;;;;;5017725;28;20026;-77
2024/03/16 10:40:45;;;;;;;0.10;0.10;;;16.60;77.60;;;;;;5012290;28;20037;-77
2024/03/16 10:43:16;;;;;;;0.10;0.10;;;16.80;77.10;;;;;;5015907;28;20492;-77
2024/03/16 10:45:45;;;;;;;0.10;0.10;;;16.80;76.80;;;;;;5012037;28;20030;-77
2024/03/16 10:48:13;;;;;;;0.10;0.10;;;16.80;77.10;;;;;;5015216;28;20531;-77
2024/03/16 10:50:43;;;;;;;0.10;0.10;;;16.90;76.90;;;;;;5014119;28;20098;-77
2024/03/16 10:53:10;;;;;;;0.10;0.10;;;17.00;76.70;;;;;;5017776;28;20044;-77
2024/03/16 10:55:39;;;;;;;0.10;0.10;;;16.90;76.50;;;;;;5016220;28;20452;-77
2024/03/16 10:58:18;;;;;;;0.10;0.10;;;16.90;76.60;;;;;;5013525;28;20014;-77
2024/03/16 11:00:44;;;;;;;0.10;0.10;;;17.00;76.80;;;;;;5014759;28;20018;-77
2024/03/16 11:03:25;;;;;;;0.10;0.10;;;17.00;76.20;;;;;;5014412;28;20581;-77
2024/03/16 11:05:57;;;;;;;0.10;0.10;;;17.10;76.20;;;;;;5015714;28;20041;-80
2024/03/16 11:08:42;;;;;;;0.10;0.10;;;17.20;75.50;;;;;;5016459;28;20026;-86
2024/03/16 11:11:15;;;;;;;0.10;0.10;;;17.40;75.20;;;;;;5013737;28;20144;-83
2024/03/16 11:14:07;;;;;;;;;;;17.50;74.60;;;;;;5016092;28;20095;-77
2024/03/16 11:16:33;;;;;;;0.10;0.10;;;17.70;74.40;;;;;;5013343;28;19909;-76
2024/03/16 11:19:16;;;;;;;0.10;0.10;;;17.80;73.60;;;;;;5013814;28;20029;-80
2024/03/16 11:21:48;;;;;;;0.10;0.10;;;17.90;72.30;;;;;;5014209;28;20028;-82
2024/03/16 11:24:19;;;;;;;0.10;0.10;;;17.90;71.90;;;;;;5014302;28;20073;-83
2024/03/16 11:26:45;;;;;;;0.10;0.10;;;18.10;72.40;;;;;;5009891;28;20139;-86
2024/03/16 11:29:14;;;;;;;0.10;0.10;;;18.10;71.90;;;;;;5015544;28;20046;-76
2024/03/16 11:31:41;;;;;;;0.10;0.10;;;18.20;71.90;;;;;;5014061;28;20050;-78
2024/03/16 11:34:14;;;;;;;0.10;0.10;;;18.20;71.00;;;;;;5017464;28;20026;-77
2024/03/16 11:36:56;;;;;;;0.08;0.08;;;18.20;71.00;;;;;;5013804;28;20026;-83
2024/03/16 11:39:29;;;;;;;0.10;0.10;;;18.30;71.30;;;;;;5012768;28;20473;-90
2024/03/16 11:41:58;;;;;;;0.10;0.10;;;18.30;70.90;;;;;;5029100;28;20046;-89
2024/03/16 11:44:24;;;;;;;0.10;0.10;;;18.20;70.90;;;;;;5037491;28;20117;-86
2024/03/16 11:46:52;;;;;;;0.10;0.10;;;18.10;70.10;;;;;;5019266;28;20054;-80
2024/03/16 11:49:18;;;;;;;0.20;0.20;;;18.10;70.70;;;;;;5016768;28;20026;-91
2024/03/16 11:51:45;;;;;;;0.10;0.10;;;18.20;70.70;;;;;;5003789;28;20027;-87
2024/03/16 11:54:12;;;;;;;0.10;0.10;;;18.40;70.40;;;;;;5000630;28;20126;-77
2024/03/16 11:56:39;;;;;;;0.10;0.10;;;18.70;70.10;;;;;;5008956;28;20502;-79
2024/03/16 11:59:05;;;;;;;0.10;0.10;;;18.50;68.90;;;;;;5020226;28;20077;-78
2024/03/16 12:01:34;;;;;;;0.10;0.10;;;18.60;69.80;;;;;;5020150;28;20065;-78
2024/03/16 12:04:01;;;;;;;0.10;0.10;;;18.40;69.40;;;;;;5019814;28;20034;-78
2024/03/16 12:06:28;;;;;;;0.10;0.10;;;18.30;69.60;;;;;;5008691;28;20113;-81
2024/03/16 12:08:54;;;;;;;0.10;0.10;;;18.40;69.70;;;;;;5000362;28;20030;-79
2024/03/16 12:11:20;;;;;;;0.10;0.10;;;18.40;69.20;;;;;;5000425;28;20038;-79
2024/03/16 12:13:46;;;;;;;0.13;0.13;;;18.60;69.80;;;;;;4999964;28;20464;-83
2024/03/16 12:16:12;;;;;;;0.10;0.10;;;18.50;68.80;;;;;;5000007;28;20091;-80
2024/03/16 12:18:39;;;;;;;0.03;0.03;;;18.50;68.30;;;;;;5032051;28;20035;-79
2024/03/16 12:21:06;;;;;;;0.10;0.10;;;18.30;68.30;;;;;;4999966;28;20386;-79
2024/03/16 12:23:35;;;;;;;0.10;0.10;;;18.40;69.00;;;;;;5000230;28;20030;-81
2024/03/16 12:26:02;;;;;;;0.10;0.10;;;18.50;69.20;;;;;;5000203;28;20393;-77
2024/03/16 12:28:29;;;;;;;0.10;0.10;;;18.40;68.20;;;;;;5016332;28;20080;-75
2024/03/16 12:30:54;;;;;;;0.10;0.10;;;18.20;69.10;;;;;;5019273;28;20046;-75
2024/03/16 12:33:20;;;;;;;0.10;0.10;;;18.30;69.90;;;;;;5016344;28;20025;-77
2024/03/16 12:35:46;;;;;;;0.10;0.10;;;18.40;69.90;;;;;;5031144;28;20077;-79
2024/03/16 12:38:11;;;;;;;0.10;0.10;;;18.70;68.80;;;;;;5000712;28;20030;-78
2024/03/16 12:40:38;;;;;;;0.00;0.00;;;18.80;68.60;;;;;;5018544;28;20057;-82
2024/03/16 12:43:05;;;;;;;0.10;0.10;;;18.70;67.70;;;;;;5015011;28;20032;-79
2024/03/16 12:45:31;;;;;;;0.10;0.10;;;18.60;67.70;;;;;;5015045;28;20022;-78
2024/03/16 12:47:57;;;;;;;0.10;0.10;;;18.50;68.50;;;;;;5014198;28;20424;-80
2024/03/16 12:50:22;;;;;;;0.10;0.10;;;18.50;68.10;;;;;;5015292;28;20040;-79
2024/03/16 12:52:52;;;;;;;0.03;0.03;;;18.60;68.20;;;;;;5016893;28;20037;-79
2024/03/16 12:55:17;;;;;;;0.00;0.00;;;18.60;68.50;;;;;;5018984;28;20018;-79
2024/03/16 12:57:47;;;;;;;0.00;0.00;;;18.30;68.80;;;;;;5019770;28;20026;-79
2024/03/16 13:00:17;;;;;;;0.10;0.10;;;18.20;70.00;;;;;;5019854;28;20048;-80
2024/03/16 13:02:44;;;;;;;0.10;0.10;;;18.00;69.30;;;;;;5017455;28;20018;-81
2024/03/16 13:05:13;;;;;;;0.10;0.10;;;18.10;69.60;;;;;;5016284;28;20481;-80
2024/03/16 13:07:39;;;;;;;0.10;0.10;;;18.00;69.50;;;;;;5015626;28;20026;-80
2024/03/16 13:10:06;;;;;;;0.03;0.03;;;18.00;69.50;;;;;;5021562;28;20436;-80
2024/03/16 13:12:32;;;;;;;0.10;0.10;;;17.80;69.50;;;;;;5023104;28;20028;-80
2024/03/16 13:14:58;;;;;;;0.10;0.10;;;17.80;70.20;;;;;;5021218;28;20032;-79
2024/03/16 13:17:24;;;;;;;0.10;0.10;;;17.80;69.60;;;;;;5025900;28;20445;-79
2024/03/16 13:19:50;;;;;;;0.03;0.03;;;17.90;69.90;;;;;;5024145;28;20402;-79
2024/03/16 13:22:16;;;;;;;0.10;0.10;;;17.90;69.70;;;;;;5023942;28;20031;-80
2024/03/16 13:24:43;;;;;;;0.00;0.00;;;17.80;69.90;;;;;;5030209;28;20021;-79
2024/03/16 13:27:10;;;;;;;0.10;0.10;;;17.50;71.00;;;;;;5022568;28;20116;-79
2024/03/16 13:29:37;;;;;;;0.08;0.08;;;17.20;72.70;;;;;;5018662;28;20053;-80
2024/03/16 13:32:03;;;;;;;0.10;0.10;;;17.10;74.10;;;;;;5017528;28;20545;-78
2024/03/16 13:34:30;;;;;;;0.10;0.10;;;17.00;74.40;;;;;;5022015;28;20111;-79
2024/03/16 13:36:56;;;;;;;0.10;0.10;;;17.00;74.80;;;;;;5023078;28;20121;-78
2024/03/16 13:39:25;;;;;;;0.10;0.10;;;17.10;74.40;;;;;;5022938;28;20500;-80
2024/03/16 13:41:51;;;;;;;0.10;0.10;;;17.20;74.40;;;;;;5025539;28;20022;-79
2024/03/16 13:44:17;;;;;;;0.10;0.10;;;17.30;73.50;;;;;;5025491;28;20079;-78
2024/03/16 13:46:42;;;;;;;0.10;0.10;;;17.60;73.20;;;;;;5024054;28;20033;-78
2024/03/16 13:49:08;;;;;;;0.10;0.10;;;17.80;72.40;;;;;;5025268;28;20433;-79
2024/03/16 13:51:34;;;;;;;0.10;0.10;;;17.80;72.10;;;;;;5013837;28;20083;-78
2024/03/16 13:54:00;;;;;;;0.03;0.03;;;17.90;71.50;;;;;;5022098;28;20033;-78
2024/03/16 13:56:26;;;;;;;0.10;0.10;;;18.00;71.00;;;;;;5029479;28;20036;-77
2024/03/16 13:58:52;;;;;;;0.00;0.00;;;18.00;70.80;;;;;;5026404;28;20037;-76
2024/03/16 14:01:20;;;;;;;0.10;0.10;;;17.90;70.20;;;;;;5020758;28;20018;-79
2024/03/16 14:03:50;;;;;;;0.10;0.10;;;17.80;70.20;;;;;;5004113;28;20022;-78
2024/03/16 14:06:16;;;;;;;0.10;0.10;;;17.80;70.70;;;;;;5015224;28;20018;-77
2024/03/16 14:08:42;;;;;;;0.10;0.10;;;17.80;70.90;;;;;;5014805;28;20062;-77
2024/03/16 14:11:11;;;;;;;0.10;0.10;;;17.80;71.20;;;;;;5014455;28;20417;-77
2024/03/16 14:13:37;;;;;;;0.10;0.10;;;17.80;71.50;;;;;;5016007;28;20033;-77
2024/03/16 14:16:06;;;;;;;0.10;0.10;;;17.80;71.50;;;;;;5013147;28;20441;-76
2024/03/16 14:18:33;;;;;;;0.10;0.10;;;18.00;71.30;;;;;;5005975;28;20073;-77
2024/03/16 14:20:59;;;;;;;0.10;0.10;;;18.20;70.60;;;;;;5016915;28;21322;-77
2024/03/16 14:23:25;;;;;;;0.10;0.10;;;18.40;70.20;;;;;;5010194;28;20030;-78
2024/03/16 14:25:52;;;;;;;0.10;0.10;;;18.50;69.70;;;;;;5015575;28;20045;-78
2024/03/16 14:28:18;;;;;;;0.10;0.10;;;18.70;69.90;;;;;;5014942;28;20022;-77
2024/03/16 14:30:44;;;;;;;0.10;0.10;;;18.80;69.00;;;;;;5000031;28;20549;-77
2024/03/16 14:33:10;;;;;;;0.10;0.10;;;18.80;68.70;;;;;;5011398;28;20125;-77
2024/03/16 14:35:35;;;;;;;0.10;0.10;;;18.70;69.20;;;;;;5014026;28;20628;-77
2024/03/16 14:38:01;;;;;;;0.10;0.10;;;18.50;68.90;;;;;;5015543;28;20021;-77
2024/03/16 14:40:28;;;;;;;0.10;0.10;;;18.40;69.50;;;;;;5013983;28;20072;-77
2024/03/16 14:42:54;;;;;;;0.10;0.10;;;18.40;69.80;;;;;;5014890;28;20724;-77
2024/03/16 14:45:19;;;;;;;0.10;0.10;;;18.40;70.20;;;;;;5013041;28;20022;-77
2024/03/16 14:47:45;;;;;;;0.10;0.10;;;18.50;70.40;;;;;;5014492;28;20378;-77
2024/03/16 14:50:14;;;;;;;0.10;0.10;;;18.40;69.90;;;;;;5011213;28;20053;-78
2024/03/16 14:52:40;;;;;;;0.10;0.10;;;18.30;70.10;;;;;;5011255;28;20559;-78
2024/03/16 14:55:06;;;;;;;0.08;0.08;;;18.30;70.20;;;;;;5015688;28;20100;-77
2024/03/16 14:57:34;;;;;;;0.10;0.10;;;18.10;70.50;;;;;;5013409;28;20034;-77
2024/03/16 15:00:06;;;;;;;0.10;0.10;;;18.20;70.10;;;;;;5011812;28;20049;-78
2024/03/16 15:02:35;;;;;;;0.03;0.03;;;18.00;69.50;;;;;;5012520;28;20026;-78
2024/03/16 15:05:05;;;;;;;0.05;0.05;;;17.90;70.10;;;;;;5016334;28;20550;-77
2024/03/16 15:07:31;;;;;;;0.08;0.08;;;17.70;70.10;;;;;;5017628;28;20030;-77
2024/03/16 15:09:58;;;;;;;0.00;0.00;;;17.50;70.40;;;;;;5015634;28;20087;-77
2024/03/16 15:12:24;;;;;;;0.10;0.10;;;17.60;70.60;;;;;;5013507;28;20417;-78
2024/03/16 15:14:50;;;;;;;0.00;0.00;;;17.60;70.70;;;;;;5010689;28;20076;-78
2024/03/16 15:17:19;;;;;;;0.10;0.10;;;17.60;70.90;;;;;;5014252;28;20029;-78
2024/03/16 15:19:44;;;;;;;0.10;0.10;;;17.70;71.00;;;;;;5011240;28;20024;-77
2024/03/16 15:22:10;;;;;;;0.10;0.10;;;17.70;71.10;;;;;;5013058;28;20096;-78
2024/03/16 15:24:39;;;;;;;0.00;0.00;;;17.60;70.30;;;;;;5007996;28;20029;-77
2024/03/16 15:29:43;;;;;;;0.10;0.10;;;17.70;70.70;;;;;;5014298;28;20576;-78
2024/03/16 15:32:09;;;;;;;0.10;0.10;;;17.60;69.40;;;;;;5014022;28;20064;-77
2024/03/16 15:34:36;;;;;;;0.00;0.00;;;17.50;68.90;;;;;;5014291;28;20424;-74
2024/03/16 15:37:02;;;;;;;0.00;0.00;;;17.50;68.90;;;;;;5005436;28;20034;-75
2024/03/16 15:39:28;;;;;;;0.10;0.10;;;17.40;68.70;;;;;;5013789;28;20050;-75
2024/03/16 15:41:53;;;;;;;0.10;0.10;;;17.50;69.30;;;;;;5015248;28;20026;-80
2024/03/16 15:44:19;;;;;;;0.00;0.00;;;17.40;69.00;;;;;;5012713;28;20164;-75
2024/03/16 15:46:46;;;;;;;0.00;0.00;;;17.50;68.90;;;;;;5005546;28;20022;-75
2024/03/16 15:49:12;;;;;;;0.10;0.10;;;17.20;69.70;;;;;;5013067;28;20037;-75
2024/03/16 15:51:38;;;;;;;0.10;0.10;;;17.30;70.10;;;;;;5015173;28;20481;-75
2024/03/16 15:54:04;;;;;;;0.00;0.00;;;17.30;70.00;;;;;;5014752;28;20101;-78
2024/03/16 15:56:30;;;;;;;0.10;0.10;;;17.30;70.50;;;;;;5009460;28;20026;-80
2024/03/16 15:58:59;;;;;;;0.10;0.10;;;17.30;70.90;;;;;;5006455;28;20137;-75
2024/03/16 16:01:28;;;;;;;0.03;0.03;;;17.20;71.50;;;;;;5014208;28;20024;-76
2024/03/16 16:03:57;;;;;;;0.00;0.00;;;17.20;71.90;;;;;;5013800;28;20025;-75
2024/03/16 16:06:23;;;;;;;0.10;0.10;;;17.20;72.10;;;;;;5009726;28;20026;-75
2024/03/16 16:08:49;;;;;;;0.00;0.00;;;17.20;72.70;;;;;;5013244;28;20038;-78
2024/03/16 16:11:15;;;;;;;0.00;0.00;;;17.10;73.20;;;;;;5007547;28;20018;-76
2024/03/16 16:13:41;;;;;;;0.10;0.10;;;17.00;73.50;;;;;;5012792;28;20062;-76
2024/03/16 16:16:07;;;;;;;0.10;0.10;;;17.00;73.90;;;;;;5006787;28;20546;-78
2024/03/16 16:18:32;;;;;;;0.10;0.10;;;16.90;74.40;;;;;;5011234;28;20026;-76
2024/03/16 16:20:58;;;;;;;0.00;0.00;;;16.90;74.60;;;;;;5008834;28;20030;-76
2024/03/16 16:23:32;;;;;;;0.10;0.10;;;16.90;74.70;;;;;;5010581;28;20041;-75
2024/03/16 16:25:58;;;;;;;0.10;0.10;;;16.90;74.80;;;;;;5015045;28;20049;-77
2024/03/16 16:28:24;;;;;;;0.10;0.10;;;16.90;74.90;;;;;;5012843;28;20018;-76
2024/03/16 16:30:50;;;;;;;0.10;0.10;;;17.00;74.90;;;;;;5017268;28;20100;-76
2024/03/16 16:33:16;;;;;;;0.00;0.00;;;16.90;75.30;;;;;;5001770;28;20125;-76
2024/03/16 16:35:49;;;;;;;0.10;0.10;;;16.90;75.30;;;;;;5014732;28;20029;-76
2024/03/16 16:38:15;;;;;;;;;;;17.00;75.40;;;;;;5014061;28;20022;-76
2024/03/16 16:40:41;;;;;;;0.00;0.00;;;17.00;75.50;;;;;;5016848;28;19953;-76
2024/03/16 16:43:07;;;;;;;0.10;0.10;;;17.00;75.30;;;;;;5012625;28;20026;-76
2024/03/16 16:45:33;;;;;;;0.00;0.00;;;17.00;75.20;;;;;;5012913;28;20033;-76
2024/03/16 16:47:58;;;;;;;0.10;0.10;;;17.00;75.40;;;;;;5016877;28;20030;-76
2024/03/16 16:50:24;;;;;;;0.10;0.10;;;17.00;75.60;;;;;;5013752;28;20685;-76
2024/03/16 16:52:49;;;;;;;0.10;0.10;;;16.90;75.50;;;;;;5015691;28;20052;-76
2024/03/16 16:55:15;;;;;;;0.10;0.10;;;17.00;75.60;;;;;;5013971;28;20101;-75
2024/03/16 16:57:40;;;;;;;0.10;0.10;;;16.90;75.70;;;;;;5013161;28;20053;-77
2024/03/16 17:00:12;;;;;;;0.10;0.10;;;16.90;75.90;;;;;;5019310;28;20394;-77
2024/03/16 17:02:41;;;;;;;0.00;0.00;;;16.90;75.60;;;;;;5014231;28;20057;-78
2024/03/16 17:05:07;;;;;;;0.00;0.00;;;16.80;75.50;;;;;;5017321;28;20139;-74
2024/03/16 17:07:33;;;;;;;0.10;0.10;;;16.80;75.70;;;;;;5012395;28;20022;-75
2024/03/16 17:10:08;;;;;;;0.10;0.10;;;16.80;75.30;;;;;;5016178;28;20026;-75
2024/03/16 17:12:34;;;;;;;0.10;0.10;;;16.70;75.60;;;;;;5011492;28;20029;-79
2024/03/16 17:15:09;;;;;;;0.00;0.00;;;16.70;74.70;;;;;;5015333;28;20034;-80
2024/03/16 17:17:36;;;;;;;0.00;0.00;;;16.60;73.90;;;;;;5012475;28;20060;-82
2024/03/16 17:20:06;;;;;;;0.00;0.00;;;16.60;73.60;;;;;;5011807;28;20030;-80
2024/03/16 17:22:35;;;;;;;0.08;0.08;;;16.50;73.00;;;;;;5026219;28;20018;-80
2024/03/16 17:25:01;;;;;;;0.00;0.00;;;16.50;72.90;;;;;;5021296;28;20397;-81
2024/03/16 17:27:27;;;;;;;0.00;0.00;;;16.50;72.90;;;;;;5017329;28;20032;-81
2024/03/16 17:29:53;;;;;;;0.00;0.00;;;16.40;72.90;;;;;;5009055;28;20068;-79
2024/03/16 17:32:19;;;;;;;0.10;0.10;;;16.30;72.50;;;;;;5017166;28;20034;-82
2024/03/16 17:34:46;;;;;;;0.00;0.00;;;16.30;72.60;;;;;;5025899;28;20705;-78
2024/03/16 17:37:14;;;;;;;0.10;0.10;;;16.30;72.20;;;;;;5018861;28;20033;-82
2024/03/16 17:39:43;;;;;;;0.00;0.00;;;16.30;72.10;;;;;;5015505;28;20030;-82
2024/03/16 17:42:10;;;;;;;0.00;0.00;;;16.30;72.40;;;;;;5010444;28;20466;-80
2024/03/16 17:44:36;;;;;;;0.10;0.10;;;16.30;72.60;;;;;;5015854;28;20030;-81
2024/03/16 17:47:06;;;;;;;0.10;0.10;;;16.20;72.40;;;;;;5015759;28;20117;-80
2024/03/16 17:49:34;;;;;;;0.10;0.10;;;16.20;72.70;;;;;;5027505;28;20033;-81
2024/03/16 17:52:00;;;;;;;0.00;0.00;;;16.20;72.70;;;;;;5019516;28;20021;-80
2024/03/16 17:54:26;;;;;;;0.10;0.10;;;16.20;72.70;;;;;;5014067;28;20060;-79
2024/03/16 17:56:51;;;;;;;0.00;0.00;;;16.20;72.80;;;;;;5011434;28;20022;-81
2024/03/16 17:59:17;;;;;;;0.10;0.10;;;16.10;72.70;;;;;;5015158;28;20026;-81
2024/03/16 18:01:51;;;;;;;0.00;0.00;;;16.10;72.90;;;;;;5015419;28;20013;-80
2024/03/16 18:04:19;;;;;;;0.00;0.00;;;16.10;72.70;;;;;;5015699;28;20032;-81
2024/03/16 18:06:45;;;;;;;0.10;0.10;;;16.00;72.90;;;;;;5010401;28;20026;-80
2024/03/16 18:09:22;;;;;;;0.00;0.00;;;16.00;73.10;;;;;;5015166;28;20060;-79
2024/03/16 18:11:48;;;;;;;0.00;0.00;;;16.00;73.20;;;;;;5015446;28;20034;-80
2024/03/16 18:14:17;;;;;;;0.00;0.00;;;16.00;73.30;;;;;;5016828;28;20036;-80
2024/03/16 18:16:44;;;;;;;0.00;0.00;;;15.90;73.50;;;;;;5010944;28;20088;-80
2024/03/16 18:19:14;;;;;;;0.00;0.00;;;15.80;73.70;;;;;;5007259;28;20041;-80
2024/03/16 18:21:40;;;;;;;0.00;0.00;;;15.80;73.80;;;;;;5013008;28;20808;-81